Axtell, Utah
Current Conditions -  °F | °C
As of 3:15 PM on Wednesday 22 Oct 2014 (Local Time) from KDTA Reporting Station
Clear Clear  
Wind Chill: 62°   Ceiling: Unl
Heat Index: 62°   Visibility: 10mi
Dew Point: 29°   Wind: 0mph
Humidity: 29%   Direction: NA
Pressure: 30.16"   Gusts: NA
Location:  39.06°N, 111.82°W
Report Text: KDTA 222115Z AUTO 00000KT 10SM CLR 17/M01 A3016 RMK AO1 T01691015
Loading
Personal Weather Stations






























Interactive Weather Map
Tropical Storm Tracking
New forecast layout! Learn more

10-Day Weather Forecast

Advertisements
Track Severe Weather on mobile